Weather at RAF Castletown [CLOSED]

Public forecast

Using degrees Celsius for public forecast. Weather courtesy of forecast.io.

Closest aviation weather report (METAR) to RAF Castletown

Closest report is Wick Airport, 11.0 nm (20.4 km) SE. Retrieved 2021/07/31 05:20 UTC (2 minutes ago):

EGPC 310520Z AUTO 32007KT 3000 DZ BKN006/// BKN012/// OVC034/// 10/09 Q1006

Closest aviation forecast (TAF) to RAF Castletown

Closest forecast is RAF Lossiemouth, 52.8 nm (97.8 km) S. Retrieved 2021-07-31 03:06 UTC (2 hours ago):

TAF EGQS 310106Z 3103/3121 35010KT 9999 FEW010 BKN025 TEMPO 3103/3106 4000 RADZ SCT010 TEMPO 3106/3121 SCT020 PROB30 TEMPO 3106/3121 6000 -SHRA SCT014